マレ の空港の天気 - METARとTAF

マレ国際空港 ( VRMM / MLE ) - モルディブ Hulhule Island, North Male Atoll
飛行場実況気象(Metar)
観測時間08/22 21:00 MVT (08/22 16:00 UTC)
風向・風速西 3m/s
視程10km以上
天気現象
少しの雲 雲底高度 550m
全天の8割程度の雲 雲底高度 7920m
気温29℃
湿度74%
気圧1012hPa
METARVRMM 221600Z 26005KT 9999 FEW018 BKN260 29/24 Q1012 NOSIG
過去の天気等 Google飛行場航空写真 Wunderground天気予報

過去48時間のMETAR

飛行場予報(TAF)
発表時間: 8/22 16:00 MVT (8/22 11:00 UTC)
予報対象時間: 22日17時 MVT ~ 23日23時 MVT
風向・風速西 5m/s
視程10km以上
少しの雲 雲底高度 550m
22日17時 MVT ~ 22日23時 MVT に一時的に
視程5000m
天気現象弱いしゅう雨
少しの積乱雲 雲底高度 550m
TAF VRMM 221100Z 2212/2318 27010KT 9999 FEW018
TEMPO 2212/2218 5000 -SHRA FEW018CB